Time;durP1;ratioP1;P1;durP2;ratioP2;P2;SDS_P1;SDS_P2;PMS_P1;PMS_P2;Temp;Humidity;BMP_temperature;BMP_pressure;BME280_temperature;BME280_humidity;BME280_pressure;Samples;Min_cycle;Max_cycle;Signal;HPM_P1;HPM_P2
2022/06/14 00:00:54;;;;;;;8.05;5.65;;;;;;;7.92;100.00;162636.72;5070209;28;20041;-60
2022/06/14 00:03:32;;;;;;;11.27;6.13;;;;;;;7.88;100.00;162625.91;5071282;28;20021;-60
2022/06/14 00:06:04;;;;;;;10.70;4.93;;;;;;;7.85;100.00;162617.84;5069560;28;20049;-60
2022/06/14 00:08:29;;;;;;;7.57;5.50;;;;;;;7.83;100.00;162611.06;5071437;28;20107;-60
2022/06/14 00:10:57;;;;;;;8.07;5.70;;;;;;;7.83;100.00;162612.44;5069399;28;20480;-60
2022/06/14 00:13:23;;;;;;;11.48;6.03;;;;;;;7.89;100.00;162628.63;5071714;28;20024;-60
2022/06/14 00:15:49;;;;;;;11.95;6.43;;;;;;;8.01;100.00;162659.63;5069606;28;20070;-60
2022/06/14 00:18:15;;;;;;;13.20;6.47;;;;;;;8.05;100.00;162669.03;5071219;28;20062;-60
2022/06/14 00:20:42;;;;;;;17.20;7.00;;;;;;;8.06;100.00;162671.75;5069640;28;20113;-60
2022/06/14 00:23:08;;;;;;;12.77;6.10;;;;;;;8.03;100.00;162663.63;5070897;28;20456;-60
2022/06/14 00:25:37;;;;;;;11.77;4.80;;;;;;;7.96;100.00;162646.16;5069255;28;20143;-60
2022/06/14 00:28:04;;;;;;;4.43;3.03;;;;;;;7.87;100.00;162621.88;5070921;28;20407;-61
2022/06/14 00:30:30;;;;;;;4.82;4.20;;;;;;;7.75;100.00;162590.88;5069482;28;20123;-61
2022/06/14 00:32:56;;;;;;;7.00;5.82;;;;;;;7.67;100.00;162569.31;5070217;28;20455;-61
2022/06/14 00:35:21;;;;;;;8.15;3.95;;;;;;;7.62;100.00;162558.56;5069412;28;20056;-58
2022/06/14 00:37:47;;;;;;;3.70;3.42;;;;;;;7.51;100.00;162528.91;5070557;28;20021;-59
2022/06/14 00:40:15;;;;;;;8.27;3.92;;;;;;;7.43;100.00;162507.34;5069033;28;20416;-59
2022/06/14 00:42:40;;;;;;;10.70;5.30;;;;;;;7.39;100.00;162497.91;5070825;28;20454;-58
2022/06/14 00:45:08;;;;;;;7.75;4.72;;;;;;;7.41;100.00;162502.00;5069080;28;20032;-58
2022/06/14 00:47:51;;;;;;;7.30;5.17;;;;;;;7.44;100.00;162510.06;5070773;28;20418;-58
2022/06/14 00:50:24;;;;;;;8.15;5.57;;;;;;;7.49;100.00;162522.19;5069115;28;20473;-58
2022/06/14 00:52:55;;;;;;;6.88;4.80;;;;;;;7.52;100.00;162531.59;5070283;28;20023;-58
2022/06/14 00:55:26;;;;;;;8.63;4.47;;;;;;;7.49;100.00;162523.50;5068945;28;20048;-58
2022/06/14 00:57:59;;;;;;;5.65;4.20;;;;;;;7.44;100.00;162510.06;5070231;28;20035;-58
2022/06/14 01:00:31;;;;;;;8.23;5.72;;;;;;;7.40;100.00;162499.28;5069500;28;20033;-59
2022/06/14 01:03:03;;;;;;;11.68;4.55;;;;;;;7.41;100.00;162502.00;5069735;28;20363;-59
2022/06/14 01:08:28;;;;;;;18.98;6.60;;;;;;;7.41;100.00;162502.00;5070883;28;20570;-58
2022/06/14 01:10:54;;;;;;;13.45;5.45;;;;;;;7.40;100.00;162499.28;5068494;28;20044;-59
2022/06/14 01:13:21;;;;;;;10.27;7.13;;;;;;;7.41;100.00;162502.00;5070395;28;20118;-58
2022/06/14 01:15:49;;;;;;;7.32;6.60;;;;;;;7.41;100.00;162502.00;5068570;28;20060;-58
2022/06/14 01:18:15;;;;;;;10.82;4.53;;;;;;;7.32;100.00;162477.75;5069117;28;20031;-58
2022/06/14 01:20:41;;;;;;;5.88;3.63;;;;;;;7.32;100.00;162479.06;5068828;28;20068;-59
2022/06/14 01:23:09;;;;;;;6.22;4.97;;;;;;;7.25;100.00;162461.59;5070039;28;20025;-59
2022/06/14 01:25:50;;;;;;;10.93;4.60;;;;;;;7.20;100.00;162448.06;5068130;28;20052;-59
2022/06/14 01:28:19;;;;;;;5.75;4.47;;;;;;;7.13;100.00;162430.59;5070243;28;20142;-59
2022/06/14 01:30:50;;;;;;;8.32;5.43;;;;;;;7.07;100.00;162413.06;5068635;28;20064;-59
2022/06/14 01:33:25;;;;;;;12.25;4.85;;;;;;;7.17;100.00;162440.03;5069919;28;20029;-59
2022/06/14 01:36:02;;;;;;;8.52;6.30;;;;;;;7.14;100.00;162433.31;5068478;28;20044;-59
2022/06/14 01:38:28;;;;;;;15.75;7.03;;;;;;;7.13;100.00;162429.22;5070328;28;20433;-59
2022/06/14 01:40:59;;;;;;;4.95;4.20;;;;;;;7.12;100.00;162426.53;5068318;28;20065;-60
2022/06/14 01:43:31;;;;;;;13.23;6.70;;;;;;;7.13;100.00;162429.22;5070427;28;20082;-59
2022/06/14 01:46:25;;;;;;;9.00;5.40;;;;;;;7.17;100.00;162438.66;5055553;28;20091;-59
2022/06/14 01:52:26;;;;;;;9.60;5.80;;;;;;;7.12;100.00;162426.53;5068611;28;20051;-60
2022/06/14 01:54:57;;;;;;;9.85;7.05;;;;;;;7.11;100.00;162423.88;5067938;28;20025;-60
2022/06/14 01:57:51;;;;;;;13.38;6.50;;;;;;;7.10;100.00;162421.19;5069923;28;20033;-60
2022/06/14 02:00:24;;;;;;;7.88;4.78;;;;;;;7.06;100.00;162410.38;5068688;28;20028;-60
2022/06/14 02:05:54;;;;;;;6.60;4.93;;;;;;;6.95;100.00;162383.47;5068252;28;20106;-60
2022/06/14 02:08:24;;;;;;;4.68;2.53;;;;;;;6.89;100.00;162367.28;5069832;28;20028;-60
2022/06/14 02:11:03;;;;;;;10.30;4.68;;;;;;;6.79;100.00;162340.38;5067724;28;20507;-60
2022/06/14 02:13:44;;;;;;;5.05;4.10;;;;;;;6.81;100.00;162345.78;5069773;28;20060;-60
2022/06/14 02:16:20;;;;;;;9.05;5.00;;;;;;;6.75;100.00;162329.56;5067628;28;20492;-60
2022/06/14 02:18:55;;;;;;;5.63;4.28;;;;;;;6.73;100.00;162324.22;5069680;28;20036;-59
2022/06/14 02:21:32;;;;;;;10.48;6.03;;;;;;;6.80;100.00;162344.41;5068409;28;20500;-59
2022/06/14 02:24:05;;;;;;;11.25;6.03;;;;;;;6.80;100.00;162344.41;5069011;28;20136;-59
2022/06/14 02:26:43;;;;;;;10.65;6.03;;;;;;;6.75;100.00;162329.56;5067856;28;20067;-60
2022/06/14 02:29:24;;;;;;;10.50;5.68;;;;;;;6.69;100.00;162313.44;5071065;28;20029;-60
2022/06/14 02:31:57;;;;;;;12.73;6.50;;;;;;;6.71;100.00;162320.16;5069559;28;20412;-60
2022/06/14 02:34:28;;;;;;;18.45;8.23;;;;;;;6.77;100.00;162334.97;5073319;28;20140;-60
2022/06/14 02:37:09;;;;;;;10.85;7.47;;;;;;;6.75;100.00;162330.94;5071330;28;20407;-60
2022/06/14 02:39:38;;;;;;;9.95;5.95;;;;;;;6.74;100.00;162326.94;5072031;28;20071;-59
2022/06/14 02:42:12;;;;;;;6.80;5.88;;;;;;;6.70;100.00;162316.13;5071572;28;20032;-60
2022/06/14 02:44:48;;;;;;;4.43;3.50;;;;;;;6.57;100.00;162283.81;5072922;28;20433;-60
2022/06/14 02:47:33;;;;;;;9.93;3.08;;;;;;;6.57;100.00;162283.81;5071029;28;20495;-60
2022/06/14 02:50:07;;;;;;;4.57;3.70;;;;;;;6.50;100.00;162264.97;5071043;28;20035;-60
2022/06/14 02:52:50;;;;;;;8.25;5.18;;;;;;;6.45;100.00;162252.84;5072952;28;20090;-60
2022/06/14 02:55:25;;;;;;;6.65;4.32;;;;;;;6.43;100.00;162246.13;5070989;28;20048;-60
2022/06/14 02:58:01;;;;;;;6.85;6.25;;;;;;;6.40;100.00;162238.03;5072717;28;20032;-60
2022/06/14 03:00:34;;;;;;;8.10;6.30;;;;;;;6.40;100.00;162238.03;5071240;28;20127;-60
2022/06/14 03:03:13;;;;;;;7.38;6.45;;;;;;;6.39;100.00;162236.72;5072019;28;20051;-60
2022/06/14 03:05:48;;;;;;;;;;;;;;;6.34;100.00;162224.59;5071842;28;20604;-60
2022/06/14 03:08:19;;;;;;;18.30;7.88;;;;;;;6.32;100.00;162219.19;5072404;28;19908;-60
2022/06/14 03:10:52;;;;;;;16.23;7.85;;;;;;;6.32;100.00;162217.88;5071274;28;20045;-60
2022/06/14 03:13:29;;;;;;;14.95;7.40;;;;;;;6.29;100.00;162211.09;5072891;28;20020;-60
2022/06/14 03:16:12;;;;;;;10.93;8.52;;;;;;;6.27;100.00;162205.75;5070614;28;20045;-60
2022/06/14 03:18:51;;;;;;;12.63;6.82;;;;;;;-146.58;100.00;69501.63;5072941;28;20028;-60
2022/06/14 03:21:27;;;;;;;12.30;5.72;;;;;;;6.27;100.00;162205.75;5071381;28;20067;-59
2022/06/14 03:24:18;;;;;;;10.38;6.60;;;;;;;6.34;100.00;162224.59;5072295;28;20423;-59
2022/06/14 03:27:17;;;;;;;8.02;4.18;;;;;;;6.32;100.00;162219.19;5070904;28;20456;-59
2022/06/14 03:29:49;;;;;;;3.22;2.45;;;;;;;6.27;100.00;162205.75;5072267;28;20032;-59
2022/06/14 03:32:20;;;;;;;16.65;5.30;;;;;;;6.25;100.00;162200.34;5070343;28;20036;-59
2022/06/14 03:34:52;;;;;;;7.07;5.20;;;;;;;6.24;100.00;162196.31;5072170;28;20161;-59
2022/06/14 03:37:18;;;;;;;24.20;8.43;;;;;;;6.23;100.00;162194.94;5070837;28;20036;-59
2022/06/14 03:39:49;;;;;;;13.35;6.53;;;;;;;6.23;100.00;162194.94;5071958;28;20029;-59
2022/06/14 03:42:14;;;;;;;6.72;6.05;;;;;;;6.25;100.00;162200.34;5070557;28;20044;-60
2022/06/14 03:44:40;;;;;;;11.68;6.97;;;;;;;6.25;100.00;162199.03;5072131;28;20020;-59
2022/06/14 03:47:08;;;;;;;15.00;7.55;;;;;;;6.24;100.00;162197.66;5069770;28;20052;-58
2022/06/14 03:49:35;;;;;;;11.23;8.23;;;;;;;6.22;100.00;162192.25;5071886;28;20535;-58
2022/06/14 03:52:41;;;;;;;11.10;7.20;;;;;;;6.30;100.00;162213.78;5070357;28;20052;-59
2022/06/14 03:55:18;;;;;;;10.07;5.30;;;;;;;6.32;100.00;162219.19;5063507;28;20113;-59
2022/06/14 03:57:57;;;;;;;6.68;5.28;;;;;;;6.34;100.00;162224.59;5057750;28;20020;-59
2022/06/14 04:00:47;;;;;;;6.97;5.68;;;;;;;6.33;100.00;162221.91;5070040;28;20044;-59
2022/06/14 04:03:41;;;;;;;14.80;8.00;;;;;;;6.35;100.00;162227.28;5071746;28;20104;-59
2022/06/14 04:06:40;;;;;;;7.30;6.65;;;;;;;6.42;100.00;162243.44;5068515;28;20052;-60
2022/06/14 04:09:20;;;;;;;6.60;5.93;;;;;;;6.46;100.00;162255.56;5071190;28;20047;-59
2022/06/14 04:11:58;;;;;;;11.15;5.82;;;;;;;6.52;100.00;162270.31;5069411;28;20052;-60
2022/06/14 04:15:09;;;;;;;6.47;5.88;;;;;;;6.58;100.00;162285.16;5055659;28;20028;-59
2022/06/14 04:17:52;;;;;;;7.60;6.90;;;;;;;6.62;100.00;162297.28;5069646;28;20048;-59
2022/06/14 04:20:17;;;;;;;9.50;8.35;;;;;;;6.64;100.00;162301.31;5050166;28;20052;-59
2022/06/14 04:22:54;;;;;;;11.80;9.43;;;;;;;6.64;100.00;162302.69;5051225;28;20104;-59
2022/06/14 04:25:38;;;;;;;16.58;10.32;;;;;;;6.69;100.00;162313.44;5049793;28;20080;-60
2022/06/14 04:28:20;;;;;;;19.65;8.23;;;;;;;6.75;100.00;162329.56;5069310;28;20029;-59
2022/06/14 04:30:49;;;;;;;13.10;8.13;;;;;;;6.82;100.00;162349.78;5069042;28;20059;-59
2022/06/14 04:33:23;;;;;;;15.45;8.80;;;;;;;6.83;100.00;162352.50;5070747;28;20013;-60
2022/06/14 04:36:05;;;;;;;12.55;9.07;;;;;;;6.89;100.00;162365.94;5069723;28;20040;-59
2022/06/14 04:38:41;;;;;;;12.02;8.82;;;;;;;6.94;100.00;162380.78;5070864;28;20039;-59
2022/06/14 04:41:22;;;;;;;13.98;8.52;;;;;;;7.00;100.00;162395.53;5069643;28;20131;-59
2022/06/14 04:44:01;;;;;;;11.02;9.15;;;;;;;7.06;100.00;162411.75;5070755;28;20028;-59
2022/06/14 04:46:35;;;;;;;12.90;9.18;;;;;;;7.13;100.00;162429.22;5069395;28;20072;-59
2022/06/14 04:49:38;;;;;;;13.82;9.95;;;;;;;7.20;100.00;162448.06;5071121;28;20084;-59
2022/06/14 04:52:13;;;;;;;15.60;9.68;;;;;;;7.27;100.00;162466.94;5067993;28;20052;-59
2022/06/14 04:55:04;;;;;;;18.92;11.18;;;;;;;7.35;100.00;162485.78;5063465;28;20094;-59
2022/06/14 04:57:37;;;;;;;15.60;10.10;;;;;;;7.45;100.00;162512.75;5057818;28;20052;-59
2022/06/14 05:00:11;;;;;;;11.60;9.15;;;;;;;7.53;100.00;162534.31;5058313;28;20086;-59
2022/06/14 05:02:53;;;;;;;14.20;11.50;;;;;;;7.62;100.00;162557.19;5059992;28;20020;-59
2022/06/14 05:05:43;;;;;;;16.30;10.80;;;;;;;7.73;100.00;162585.47;5058872;28;20063;-59
2022/06/14 05:08:20;;;;;;;13.13;9.48;;;;;;;7.79;100.00;162601.66;5058138;28;20114;-59
2022/06/14 05:11:05;;;;;;;13.25;10.93;;;;;;;7.84;100.00;162615.16;5055441;28;20048;-59
2022/06/14 05:14:03;;;;;;;17.40;10.88;;;;;;;7.99;100.00;162652.88;5054883;28;20107;-59
2022/06/14 05:16:32;;;;;;;20.25;9.63;;;;;;;8.14;100.00;162693.31;5048783;28;20041;-59
2022/06/14 05:19:00;;;;;;;18.48;11.40;;;;;;;8.26;100.00;162724.31;5049520;28;20439;-59
2022/06/14 05:21:39;;;;;;;27.83;13.77;;;;;;;8.31;100.00;162736.41;5047354;28;20044;-59
2022/06/14 05:24:06;;;;;;;15.82;13.25;;;;;;;8.48;100.00;162780.97;5049628;28;20021;-59
2022/06/14 05:26:51;;;;;;;20.20;12.98;;;;;;;8.63;100.00;162821.41;5048602;28;20045;-59
2022/06/14 05:29:29;;;;;;;19.13;12.23;;;;;;;8.78;100.00;162860.50;5049805;28;20025;-59
2022/06/14 05:32:15;;;;;;;20.70;13.05;;;;;;;8.99;100.00;162914.41;5048570;28;20419;-59
2022/06/14 05:35:09;;;;;;;24.35;12.25;;;;;;;9.22;100.00;162975.13;5050542;28;20032;-59
2022/06/14 05:37:58;;;;;;;13.80;12.35;;;;;;;9.42;100.00;163026.34;5048606;28;20060;-59
2022/06/14 05:40:37;;;;;;;16.98;10.55;;;;;;;9.57;100.00;163065.50;5048863;28;20384;-60
2022/06/14 05:43:35;;;;;;;20.55;12.70;;;;;;;9.73;100.00;163108.63;5049705;28;20028;-60
2022/06/14 05:46:20;;;;;;;;;;;;;;;9.92;100.00;163157.22;5044054;28;20453;-60
2022/06/14 05:48:57;;;;;;;17.15;9.82;;;;;;;10.00;100.00;163180.16;5049659;28;19917;-60
2022/06/14 05:51:40;;;;;;;18.67;9.70;;;;;;;10.13;100.00;163213.88;5048589;28;20091;-60
2022/06/14 05:54:24;;;;;;;15.90;10.25;;;;;;;10.30;100.00;163257.09;5050118;28;20471;-58
2022/06/14 05:57:13;;;;;;;18.38;9.38;;;;;;;10.46;100.00;163298.97;5048339;28;20033;-58
2022/06/14 05:59:47;;;;;;;;;;;;;;;10.71;100.00;163363.75;5049774;28;20029;-58
2022/06/14 06:02:30;;;;;;;18.98;8.07;;;;;;;10.83;100.00;163394.81;5048736;28;19920;-58
2022/06/14 06:05:05;;;;;;;19.98;11.07;;;;;;;11.01;100.00;163443.38;5051795;28;20407;-58
2022/06/14 06:07:38;;;;;;;19.63;9.55;;;;;;;11.16;100.00;163482.56;5053856;28;20017;-58
2022/06/14 06:10:24;;;;;;;21.70;9.00;;;;;;;11.40;100.00;163546.03;5052243;28;20021;-58
2022/06/14 06:13:01;;;;;;;15.10;7.82;;;;;;;11.62;100.00;163602.75;5053591;28;20064;-58
2022/06/14 06:15:38;;;;;;;12.07;6.50;;;;;;;11.80;100.00;163648.69;5052300;28;20500;-58
2022/06/14 06:18:32;;;;;;;14.80;8.18;;;;;;;11.94;100.00;163686.50;5053836;28;20025;-58
2022/06/14 06:21:17;;;;;;;11.35;7.43;;;;;;;12.03;100.00;163710.84;5051593;28;20103;-58
2022/06/14 06:23:54;;;;;;;17.75;6.47;;;;;;;12.14;100.00;163739.22;5053485;28;20020;-58
2022/06/14 06:26:22;;;;;;;14.32;6.95;;;;;;;12.55;100.00;163845.97;5052187;28;20049;-58
2022/06/14 06:28:55;;;;;;;16.35;6.22;;;;;;;12.76;100.00;163901.38;5053224;28;20032;-58
2022/06/14 06:31:27;;;;;;;11.70;6.13;;;;;;;13.12;100.00;163994.66;5051906;28;20049;-58
2022/06/14 06:33:55;;;;;;;13.82;5.70;;;;;;;13.32;100.00;164048.75;5053083;28;20603;-58
2022/06/14 06:36:35;;;;;;;15.77;6.47;;;;;;;13.45;100.00;164081.22;5051572;28;20134;-58
2022/06/14 06:39:22;;;;;;;17.80;5.93;;;;;;;13.88;100.00;164194.84;5053522;28;20028;-58
2022/06/14 06:41:54;;;;;;;11.05;6.00;;;;;;;14.10;100.00;164251.66;5051721;28;20043;-58
2022/06/14 06:44:53;;;;;;;12.68;4.38;;;;;;;14.41;100.00;164332.78;5053120;28;20286;-58
2022/06/14 06:47:27;;;;;;;9.85;4.68;;;;;;;14.57;100.00;164374.78;5051847;28;20037;-58
2022/06/14 06:50:28;;;;;;;15.32;5.15;;;;;;;14.71;100.00;164411.31;5050616;28;20370;-57
2022/06/14 06:52:57;;;;;;;14.90;5.50;;;;;;;14.87;100.00;164454.63;5052378;28;20037;-58
2022/06/14 06:55:22;;;;;;;;;;;;;;;14.99;100.00;164485.75;5048386;28;20072;-58
2022/06/14 06:57:50;;;;;;;22.85;5.55;;;;;;;14.87;100.00;164454.63;5048986;28;19961;-56
2022/06/14 07:00:18;;;;;;;11.07;3.53;;;;;;;15.02;100.00;164493.91;5054343;28;20040;-58
2022/06/14 07:02:50;;;;;;;9.52;4.65;;;;;;;14.86;100.00;164451.91;5073127;28;20050;-58
2022/06/14 07:05:17;;;;;;;15.57;6.63;;;;;;;15.14;100.00;164525.03;5070045;28;20044;-58
2022/06/14 07:08:17;;;;;;;20.08;4.50;;;;;;;15.43;100.00;164600.84;5072905;28;20794;-58
2022/06/14 07:10:49;;;;;;;9.38;4.03;;;;;;;15.57;100.00;164636.03;5062799;28;20198;-58
2022/06/14 07:13:45;;;;;;;12.52;4.97;;;;;;;15.58;100.00;164638.75;5071891;28;20083;-56
2022/06/14 07:16:21;;;;;;;16.42;4.10;;;;;;;15.14;100.00;164525.03;5054873;28;20047;-56
2022/06/14 07:19:20;;;;;;;14.57;4.28;;;;;;;15.40;100.00;164592.69;5071284;28;20033;-56
2022/06/14 07:21:53;;;;;;;8.63;2.75;;;;;;;15.55;100.00;164633.31;5068697;28;20055;-56
2022/06/14 07:24:55;;;;;;;8.18;3.63;;;;;;;15.58;100.00;164640.06;5070630;28;20025;-56
2022/06/14 07:27:26;;;;;;;10.55;4.22;;;;;;;15.76;100.00;164686.13;5050276;28;20076;-56
2022/06/14 07:30:05;;;;;;;12.15;3.65;;;;;;;15.89;100.00;164720.03;5035892;28;20026;-53
2022/06/14 07:32:36;;;;;;;14.80;4.38;;;;;;;15.92;100.00;164728.13;5052615;28;20104;-56
2022/06/14 07:35:01;;;;;;;8.38;3.95;;;;;;;15.84;100.00;164707.84;5050860;28;20029;-59
2022/06/14 07:37:49;;;;;;;12.82;3.75;;;;;;;15.59;100.00;164641.47;5052295;28;20021;-59
2022/06/14 07:40:20;;;;;;;;;;;;;;;15.79;100.00;164695.59;5051600;28;20029;-58
2022/06/14 07:43:11;;;;;;;12.43;4.85;;;;;;;16.09;100.00;164774.19;5051804;28;19912;-58
2022/06/14 07:45:48;;;;;;;13.20;3.70;;;;;;;16.25;100.00;164814.81;5050922;28;20103;-58
2022/06/14 07:48:36;;;;;;;10.77;4.00;;;;;;;16.38;100.00;164848.69;5052160;28;20025;-56
2022/06/14 07:51:11;;;;;;;12.20;4.05;;;;;;;16.30;100.00;164828.34;5049579;28;20049;-56
2022/06/14 07:53:52;;;;;;;14.27;3.75;;;;;;;15.90;100.00;164722.75;5067371;28;20080;-56
2022/06/14 07:56:23;;;;;;;17.40;4.68;;;;;;;15.72;100.00;164676.66;5050510;28;20044;-56
2022/06/14 07:58:55;;;;;;;12.77;6.22;;;;;;;15.71;100.00;164675.25;5051334;28;20021;-56
2022/06/14 08:01:32;;;;;;;8.90;2.60;;;;;;;15.21;100.00;164544.00;5050403;28;20408;-56
2022/06/14 08:04:16;;;;;;;14.20;3.50;;;;;;;15.44;100.00;164602.16;5051759;28;20025;-56
2022/06/14 08:06:46;;;;;;;10.52;3.83;;;;;;;15.52;100.00;164625.22;5050312;28;20037;-56
2022/06/14 08:09:18;;;;;;;14.40;3.60;;;;;;;15.46;100.00;164608.94;5051916;28;20032;-56
2022/06/14 08:11:51;;;;;;;9.50;4.90;;;;;;;15.52;100.00;164623.84;5049537;28;20044;-56
2022/06/14 08:14:32;;;;;;;12.55;3.47;;;;;;;15.37;100.00;164584.59;5051642;28;20127;-56
2022/06/14 08:16:59;;;;;;;16.38;4.93;;;;;;;15.15;100.00;164527.72;5049911;28;20044;-56
2022/06/14 08:19:34;;;;;;;16.63;4.10;;;;;;;15.71;100.00;164675.25;5050311;28;20025;-55
2022/06/14 08:22:07;;;;;;;12.23;3.45;;;;;;;16.30;100.00;164828.34;5049039;28;20118;-56
2022/06/14 08:24:41;;;;;;;9.38;3.45;;;;;;;16.94;100.00;164996.41;5050500;28;20624;-56
2022/06/14 08:27:16;;;;;;;9.95;3.00;;;;;;;17.22;100.00;165069.56;5049226;28;20103;-56
2022/06/14 08:29:57;;;;;;;6.60;2.05;;;;;;;17.12;100.00;165043.81;5058669;28;20037;-56
2022/06/14 08:32:39;;;;;;;13.85;3.42;;;;;;;17.39;100.00;165114.28;5068298;28;20592;-56
2022/06/14 08:35:13;;;;;;;2.85;1.75;;;;;;;17.41;100.00;165119.72;5068904;28;20020;-56
2022/06/14 08:37:48;;;;;;;4.97;1.63;;;;;;;17.85;100.00;165234.88;5069661;28;20032;-56
2022/06/14 08:40:43;;;;;;;8.25;3.30;;;;;;;18.08;100.00;165295.97;5049666;28;20045;-56
2022/06/14 08:43:11;;;;;;;11.30;4.25;;;;;;;18.47;100.00;165397.66;5051999;28;20041;-56
2022/06/14 08:46:05;;;;;;;9.10;3.40;;;;;;;18.75;100.00;165470.88;5050081;28;20124;-56
2022/06/14 08:48:38;;;;;;;9.27;4.13;;;;;;;18.46;100.00;165396.31;5070494;28;20032;-58
2022/06/14 08:51:13;;;;;;;6.53;2.72;;;;;;;18.47;100.00;165397.66;5069093;28;20154;-59
2022/06/14 08:54:12;;;;;;;7.43;3.63;;;;;;;18.03;100.00;165283.75;5071080;28;20414;-59
2022/06/14 08:57:04;;;;;;;9.75;4.07;;;;;;;18.20;100.00;165327.16;5068978;28;20400;-59
2022/06/14 08:59:45;;;;;;;6.53;2.83;;;;;;;17.90;100.00;165248.47;5070853;28;20336;-59
2022/06/14 09:02:58;;;;;;;6.95;2.50;;;;;;;17.81;100.00;165224.06;5069181;28;20040;-59
2022/06/14 09:05:29;;;;;;;8.93;2.38;;;;;;;17.62;100.00;165175.25;5068875;28;20146;-58
2022/06/14 09:08:03;;;;;;;12.98;4.00;;;;;;;17.71;100.00;165199.66;5070399;28;20436;-58
2022/06/14 09:10:59;;;;;;;9.77;3.20;;;;;;;17.49;100.00;165141.41;5069020;28;20132;-58
2022/06/14 09:13:37;;;;;;;12.35;4.53;;;;;;;17.49;100.00;165141.41;5070463;28;20515;-56
2022/06/14 09:16:25;;;;;;;7.77;3.00;;;;;;;17.49;100.00;165140.03;5068903;28;20115;-57
2022/06/14 09:18:53;;;;;;;;;;;;;;;16.93;100.00;164993.69;5058409;28;20985;-56
2022/06/14 09:21:27;;;;;;;4.68;2.85;;;;;;;16.55;100.00;164893.38;5069131;28;19935;-56
2022/06/14 09:24:08;;;;;;;5.90;2.53;;;;;;;16.72;100.00;164939.41;5070053;28;20081;-56
2022/06/14 09:26:58;;;;;;;8.52;2.55;;;;;;;16.75;100.00;164947.56;5068598;28;20131;-56
2022/06/14 09:29:41;;;;;;;11.50;2.67;;;;;;;17.29;100.00;165088.53;5070425;28;20020;-56
2022/06/14 09:33:09;;;;;;;7.97;2.42;;;;;;;17.96;100.00;165263.41;5068551;28;20102;-56
2022/06/14 09:35:58;;;;;;;10.43;3.17;;;;;;;18.22;100.00;165332.56;5068544;28;20055;-56
2022/06/14 09:38:58;;;;;;;6.13;2.58;;;;;;;19.08;100.00;165557.75;5069574;28;20021;-59
2022/06/14 09:42:01;;;;;;;10.55;2.40;;;;;;;19.73;100.00;165728.69;5068570;28;20064;-58
2022/06/14 09:44:41;;;;;;;6.05;2.22;;;;;;;20.08;100.00;165821.00;5059713;28;20037;-59
2022/06/14 09:47:28;;;;;;;6.90;2.42;;;;;;;20.12;100.00;165831.88;5047208;28;20040;-58
2022/06/14 09:50:13;;;;;;;3.30;2.70;;;;;;;20.39;100.00;165902.44;5047621;28;20109;-58
2022/06/14 09:52:42;;;;;;;6.95;2.28;;;;;;;19.71;100.00;165723.25;5049860;28;20040;-59
2022/06/14 09:55:32;;;;;;;5.22;2.45;;;;;;;19.57;100.00;165687.97;5048139;28;20047;-57
2022/06/14 09:58:29;;;;;;;10.90;3.75;;;;;;;19.42;100.00;165647.25;5049949;28;20054;-56
2022/06/14 10:01:20;;;;;;;5.13;2.50;;;;;;;19.84;100.00;165758.63;5048523;28;20565;-56
2022/06/14 10:03:54;;;;;;;6.75;2.75;;;;;;;20.56;100.00;165948.63;5049422;28;20090;-56
2022/06/14 10:06:37;;;;;;;12.45;3.55;;;;;;;20.05;100.00;165812.88;5048446;28;20551;-56
2022/06/14 10:09:04;;;;;;;5.47;2.22;;;;;;;19.40;100.00;165643.22;5048100;28;20048;-57
2022/06/14 10:11:44;;;;;;;5.50;2.80;;;;;;;19.28;100.00;165610.66;5059590;28;20036;-56
2022/06/14 10:14:31;;;;;;;11.27;3.28;;;;;;;19.27;100.00;165609.28;5069524;28;20056;-56
2022/06/14 10:17:21;;;;;;;8.23;2.42;;;;;;;18.86;100.00;165502.06;5067835;28;20044;-58
2022/06/14 10:19:58;;;;;;;5.78;2.95;;;;;;;19.31;100.00;165620.16;5068668;28;20033;-56
2022/06/14 10:22:54;;;;;;;5.20;2.88;;;;;;;19.32;100.00;165622.84;5068494;28;20436;-56
2022/06/14 10:29:03;;;;;;;14.35;2.60;;;;;;;19.77;100.00;165739.56;5068892;28;20162;-56
2022/06/14 10:31:37;;;;;;;7.63;3.22;;;;;;;19.40;100.00;165641.88;5067240;28;20105;-56
2022/06/14 10:34:19;;;;;;;9.60;2.30;;;;;;;18.81;100.00;165487.13;5067554;28;20550;-56
2022/06/14 10:37:03;;;;;;;11.35;3.35;;;;;;;18.91;100.00;165514.28;5067257;28;20092;-56
2022/06/14 10:39:37;;;;;;;16.63;2.88;;;;;;;18.78;100.00;165479.03;5068544;28;20079;-56
2022/06/14 10:42:13;;;;;;;9.05;2.90;;;;;;;18.98;100.00;165533.31;5065831;28;20086;-58
2022/06/14 10:45:07;;;;;;;4.07;2.33;;;;;;;19.15;100.00;165576.75;5068252;28;20063;-58
2022/06/14 10:48:13;;;;;;;6.78;2.47;;;;;;;19.77;100.00;165739.56;5067038;28;20032;-58
2022/06/14 10:51:09;;;;;;;5.45;2.40;;;;;;;19.84;100.00;165758.63;5060348;28;20052;-58
2022/06/14 10:53:59;;;;;;;8.10;3.42;;;;;;;20.58;100.00;165954.06;5072393;28;20039;-59
2022/06/14 10:56:37;;;;;;;8.43;3.05;;;;;;;21.17;100.00;166108.91;5067504;28;20052;-58
2022/06/14 10:59:17;;;;;;;8.95;3.65;;;;;;;21.69;100.00;166244.75;5068790;28;20035;-59
2022/06/14 11:01:51;;;;;;;5.35;3.30;;;;;;;21.59;100.00;166217.56;5069426;28;20081;-59
2022/06/14 11:04:51;;;;;;;7.63;3.17;;;;;;;21.13;97.55;166096.66;5071181;28;20029;-58
2022/06/14 11:07:35;;;;;;;6.43;2.13;;;;;;;21.35;97.15;166155.03;5070198;28;20044;-56
2022/06/14 11:10:28;;;;;;;7.45;3.53;;;;;;;21.58;95.64;166214.84;5069320;28;20657;-56
2022/06/14 11:13:19;;;;;;;14.35;2.78;;;;;;;21.52;93.93;166201.22;5070425;28;20120;-56
2022/06/14 11:16:05;;;;;;;8.20;2.03;;;;;;;20.59;96.44;165956.72;5067747;28;20040;-56
2022/06/14 11:18:42;;;;;;;5.47;1.92;;;;;;;20.45;93.45;165920.13;5072221;28;20020;-56
2022/06/14 11:21:29;;;;;;;8.20;2.47;;;;;;;19.99;97.01;165796.59;5069307;28;20150;-56
2022/06/14 11:24:14;;;;;;;5.20;2.20;;;;;;;19.56;100.00;165685.25;5071657;28;20035;-56
2022/06/14 11:27:03;;;;;;;7.10;2.70;;;;;;;19.79;100.00;165744.97;5070124;28;20044;-56
2022/06/14 11:30:02;;;;;;;4.22;1.98;;;;;;;20.10;100.00;165826.44;5083471;28;20057;-56
2022/06/14 11:32:31;;;;;;;7.30;2.58;;;;;;;20.20;100.00;165853.59;5071479;28;20037;-56
2022/06/14 11:35:31;;;;;;;5.38;2.42;;;;;;;20.19;100.00;165849.50;5060589;28;20032;-56
2022/06/14 11:38:18;;;;;;;8.40;3.15;;;;;;;20.30;99.78;165879.38;5063651;28;20467;-56
2022/06/14 11:40:57;;;;;;;13.88;2.83;;;;;;;20.47;96.09;165924.16;5060480;28;20606;-56
2022/06/14 11:43:39;;;;;;;8.38;3.53;;;;;;;20.38;96.67;165899.72;5066209;28;20567;-56
2022/06/14 11:46:26;;;;;;;8.95;2.33;;;;;;;20.55;95.63;165945.91;5070129;28;20064;-56
2022/06/14 11:49:01;;;;;;;8.48;2.40;;;;;;;20.54;96.98;165943.19;5071434;28;20108;-56
2022/06/14 11:51:29;;;;;;;4.57;2.45;;;;;;;20.52;95.50;165937.72;5069775;28;20486;-56
2022/06/14 11:54:16;;;;;;;7.85;2.45;;;;;;;20.03;94.70;165807.44;5070647;28;20032;-56
2022/06/14 11:57:10;;;;;;;18.92;2.88;;;;;;;20.23;96.43;165861.72;5066794;28;20135;-57
2022/06/14 12:00:02;;;;;;;6.63;3.53;;;;;;;20.33;96.93;165887.50;5060627;28;20396;-55
2022/06/14 12:02:55;;;;;;;10.35;3.17;;;;;;;20.71;99.89;165986.63;5079403;28;20059;-56
2022/06/14 12:05:43;;;;;;;9.35;3.83;;;;;;;20.48;89.44;165925.56;5067614;28;20194;-56
2022/06/14 12:08:26;;;;;;;5.55;2.17;;;;;;;20.39;96.14;165902.44;5070353;28;20065;-56
2022/06/14 12:11:15;;;;;;;5.65;2.30;;;;;;;20.44;97.79;165917.38;5069088;28;20033;-56
2022/06/14 12:14:04;;;;;;;7.15;2.70;;;;;;;20.66;91.97;165973.06;5068414;28;20036;-56
2022/06/14 12:16:39;;;;;;;10.38;2.95;;;;;;;21.12;91.31;166095.28;5059562;28;20045;-56
2022/06/14 12:19:10;;;;;;;6.38;2.55;;;;;;;21.11;82.92;166091.22;5070630;28;20028;-56
2022/06/14 12:21:47;;;;;;;5.60;3.17;;;;;;;21.75;91.13;166259.66;5065916;28;20362;-56
2022/06/14 12:24:21;;;;;;;5.43;2.78;;;;;;;22.25;90.43;166391.44;5070598;28;20051;-56
2022/06/14 12:27:02;;;;;;;10.15;2.00;;;;;;;22.45;91.44;166444.50;5069230;28;20102;-56